sensor_id;sensor_type;location;lat;lon;timestamp;P1;durP1;ratioP1;P2;durP2;ratioP2
10705;SDS011;5404;42.656;23.336;2023-07-31T00:00:00;4.68;;;3.45;;
10705;SDS011;5404;42.656;23.336;2023-07-31T00:02:25;5.50;;;3.72;;
10705;SDS011;5404;42.656;23.336;2023-07-31T00:04:51;4.72;;;3.65;;
10705;SDS011;5404;42.656;23.336;2023-07-31T00:07:16;6.43;;;3.33;;
10705;SDS011;5404;42.656;23.336;2023-07-31T00:09:42;6.20;;;4.35;;
10705;SDS011;5404;42.656;23.336;2023-07-31T00:12:07;6.63;;;3.80;;
10705;SDS011;5404;42.656;23.336;2023-07-31T00:14:33;6.78;;;3.97;;
10705;SDS011;5404;42.656;23.336;2023-07-31T00:16:58;7.13;;;4.10;;
10705;SDS011;5404;42.656;23.336;2023-07-31T00:19:24;5.88;;;4.38;;
10705;SDS011;5404;42.656;23.336;2023-07-31T00:21:49;4.88;;;3.90;;
10705;SDS011;5404;42.656;23.336;2023-07-31T00:24:15;5.18;;;3.67;;
10705;SDS011;5404;42.656;23.336;2023-07-31T00:26:40;4.85;;;3.70;;
10705;SDS011;5404;42.656;23.336;2023-07-31T00:29:06;8.82;;;4.13;;
10705;SDS011;5404;42.656;23.336;2023-07-31T00:31:31;6.00;;;4.75;;
10705;SDS011;5404;42.656;23.336;2023-07-31T00:33:57;5.80;;;4.50;;
10705;SDS011;5404;42.656;23.336;2023-07-31T00:36:22;6.88;;;4.82;;
10705;SDS011;5404;42.656;23.336;2023-07-31T00:38:47;7.35;;;4.93;;
10705;SDS011;5404;42.656;23.336;2023-07-31T00:41:14;7.03;;;5.80;;
10705;SDS011;5404;42.656;23.336;2023-07-31T00:43:39;6.95;;;5.20;;
10705;SDS011;5404;42.656;23.336;2023-07-31T00:46:05;7.07;;;5.47;;
10705;SDS011;5404;42.656;23.336;2023-07-31T00:48:30;9.77;;;5.68;;
10705;SDS011;5404;42.656;23.336;2023-07-31T00:50:57;9.48;;;6.85;;
10705;SDS011;5404;42.656;23.336;2023-07-31T00:53:22;8.40;;;6.45;;
10705;SDS011;5404;42.656;23.336;2023-07-31T00:55:50;8.25;;;6.65;;
10705;SDS011;5404;42.656;23.336;2023-07-31T00:58:15;10.13;;;6.30;;
10705;SDS011;5404;42.656;23.336;2023-07-31T01:00:41;13.35;;;7.03;;
10705;SDS011;5404;42.656;23.336;2023-07-31T01:03:06;11.55;;;6.80;;
10705;SDS011;5404;42.656;23.336;2023-07-31T01:06:06;11.10;;;7.85;;
10705;SDS011;5404;42.656;23.336;2023-07-31T01:11:30;12.02;;;8.32;;
10705;SDS011;5404;42.656;23.336;2023-07-31T01:13:58;13.63;;;9.38;;
10705;SDS011;5404;42.656;23.336;2023-07-31T01:16:27;14.65;;;9.73;;
10705;SDS011;5404;42.656;23.336;2023-07-31T01:18:53;13.38;;;11.00;;
10705;SDS011;5404;42.656;23.336;2023-07-31T01:21:21;15.00;;;11.90;;
10705;SDS011;5404;42.656;23.336;2023-07-31T01:26:28;15.52;;;13.20;;
10705;SDS011;5404;42.656;23.336;2023-07-31T01:29:10;17.80;;;14.68;;
10705;SDS011;5404;42.656;23.336;2023-07-31T01:31:42;19.25;;;14.85;;
10705;SDS011;5404;42.656;23.336;2023-07-31T01:34:12;19.38;;;15.52;;
10705;SDS011;5404;42.656;23.336;2023-07-31T01:36:41;23.02;;;16.77;;
10705;SDS011;5404;42.656;23.336;2023-07-31T01:39:06;24.77;;;18.02;;
10705;SDS011;5404;42.656;23.336;2023-07-31T01:41:32;27.75;;;19.90;;
10705;SDS011;5404;42.656;23.336;2023-07-31T01:43:57;27.90;;;21.85;;
10705;SDS011;5404;42.656;23.336;2023-07-31T01:46:22;33.85;;;23.02;;
10705;SDS011;5404;42.656;23.336;2023-07-31T01:48:48;31.33;;;24.35;;
10705;SDS011;5404;42.656;23.336;2023-07-31T01:51:13;34.47;;;25.23;;
10705;SDS011;5404;42.656;23.336;2023-07-31T01:53:39;36.97;;;26.73;;
10705;SDS011;5404;42.656;23.336;2023-07-31T01:56:04;36.22;;;26.75;;
10705;SDS011;5404;42.656;23.336;2023-07-31T01:58:29;38.17;;;26.38;;
10705;SDS011;5404;42.656;23.336;2023-07-31T02:00:55;36.67;;;26.35;;
10705;SDS011;5404;42.656;23.336;2023-07-31T02:03:20;40.90;;;27.15;;
10705;SDS011;5404;42.656;23.336;2023-07-31T02:05:49;44.33;;;28.05;;
10705;SDS011;5404;42.656;23.336;2023-07-31T02:08:15;40.50;;;27.42;;
10705;SDS011;5404;42.656;23.336;2023-07-31T02:10:41;40.13;;;27.42;;
10705;SDS011;5404;42.656;23.336;2023-07-31T02:13:06;38.72;;;25.77;;
10705;SDS011;5404;42.656;23.336;2023-07-31T02:15:32;46.80;;;27.65;;
10705;SDS011;5404;42.656;23.336;2023-07-31T02:17:58;36.78;;;26.38;;
10705;SDS011;5404;42.656;23.336;2023-07-31T02:20:23;38.50;;;27.17;;
10705;SDS011;5404;42.656;23.336;2023-07-31T02:22:48;33.92;;;26.20;;
10705;SDS011;5404;42.656;23.336;2023-07-31T02:25:14;37.17;;;28.30;;
10705;SDS011;5404;42.656;23.336;2023-07-31T02:27:40;35.13;;;25.25;;
10705;SDS011;5404;42.656;23.336;2023-07-31T02:30:05;39.20;;;28.05;;
10705;SDS011;5404;42.656;23.336;2023-07-31T02:32:31;40.10;;;28.25;;
10705;SDS011;5404;42.656;23.336;2023-07-31T02:34:57;37.85;;;26.73;;
10705;SDS011;5404;42.656;23.336;2023-07-31T02:37:22;38.13;;;24.92;;
10705;SDS011;5404;42.656;23.336;2023-07-31T02:39:48;36.10;;;25.85;;
10705;SDS011;5404;42.656;23.336;2023-07-31T02:42:14;42.00;;;26.75;;
10705;SDS011;5404;42.656;23.336;2023-07-31T02:44:39;36.80;;;27.67;;
10705;SDS011;5404;42.656;23.336;2023-07-31T02:47:05;38.55;;;27.10;;
10705;SDS011;5404;42.656;23.336;2023-07-31T02:49:30;45.17;;;26.88;;
10705;SDS011;5404;42.656;23.336;2023-07-31T02:51:56;36.85;;;26.58;;
10705;SDS011;5404;42.656;23.336;2023-07-31T02:54:21;39.05;;;27.73;;
10705;SDS011;5404;42.656;23.336;2023-07-31T02:56:47;35.72;;;25.83;;
10705;SDS011;5404;42.656;23.336;2023-07-31T02:59:13;33.80;;;25.50;;
10705;SDS011;5404;42.656;23.336;2023-07-31T03:01:38;35.53;;;25.95;;
10705;SDS011;5404;42.656;23.336;2023-07-31T03:04:04;36.28;;;27.30;;
10705;SDS011;5404;42.656;23.336;2023-07-31T03:06:30;32.70;;;26.10;;
10705;SDS011;5404;42.656;23.336;2023-07-31T03:08:55;34.53;;;26.00;;
10705;SDS011;5404;42.656;23.336;2023-07-31T03:11:20;33.38;;;24.95;;
10705;SDS011;5404;42.656;23.336;2023-07-31T03:13:46;34.25;;;25.58;;
10705;SDS011;5404;42.656;23.336;2023-07-31T03:16:11;35.88;;;24.80;;
10705;SDS011;5404;42.656;23.336;2023-07-31T03:18:37;35.95;;;25.15;;
10705;SDS011;5404;42.656;23.336;2023-07-31T03:21:02;40.55;;;27.20;;
10705;SDS011;5404;42.656;23.336;2023-07-31T03:23:28;32.97;;;25.15;;
10705;SDS011;5404;42.656;23.336;2023-07-31T03:26:01;35.00;;;26.60;;
10705;SDS011;5404;42.656;23.336;2023-07-31T03:28:28;36.95;;;26.23;;
10705;SDS011;5404;42.656;23.336;2023-07-31T03:30:54;38.60;;;27.00;;
10705;SDS011;5404;42.656;23.336;2023-07-31T03:33:20;37.08;;;25.85;;
10705;SDS011;5404;42.656;23.336;2023-07-31T03:35:45;37.08;;;26.48;;
10705;SDS011;5404;42.656;23.336;2023-07-31T03:38:11;35.20;;;25.60;;
10705;SDS011;5404;42.656;23.336;2023-07-31T03:40:37;36.63;;;25.90;;
10705;SDS011;5404;42.656;23.336;2023-07-31T03:43:03;41.00;;;26.70;;
10705;SDS011;5404;42.656;23.336;2023-07-31T03:45:28;46.38;;;27.27;;
10705;SDS011;5404;42.656;23.336;2023-07-31T03:47:54;43.13;;;26.92;;
10705;SDS011;5404;42.656;23.336;2023-07-31T03:50:20;38.78;;;26.88;;
10705;SDS011;5404;42.656;23.336;2023-07-31T03:52:45;38.15;;;27.13;;
10705;SDS011;5404;42.656;23.336;2023-07-31T03:55:11;36.63;;;25.40;;
10705;SDS011;5404;42.656;23.336;2023-07-31T03:57:36;38.45;;;26.73;;
10705;SDS011;5404;42.656;23.336;2023-07-31T04:00:02;41.33;;;28.80;;
10705;SDS011;5404;42.656;23.336;2023-07-31T04:02:28;42.90;;;28.55;;
10705;SDS011;5404;42.656;23.336;2023-07-31T04:04:54;40.03;;;27.40;;
10705;SDS011;5404;42.656;23.336;2023-07-31T04:07:19;37.53;;;23.52;;
10705;SDS011;5404;42.656;23.336;2023-07-31T04:09:44;36.80;;;27.40;;
10705;SDS011;5404;42.656;23.336;2023-07-31T04:12:10;45.00;;;27.90;;
10705;SDS011;5404;42.656;23.336;2023-07-31T04:14:36;42.22;;;28.20;;
10705;SDS011;5404;42.656;23.336;2023-07-31T04:17:02;37.75;;;26.70;;
10705;SDS011;5404;42.656;23.336;2023-07-31T04:19:27;38.50;;;26.08;;
10705;SDS011;5404;42.656;23.336;2023-07-31T04:21:52;38.67;;;26.80;;
10705;SDS011;5404;42.656;23.336;2023-07-31T04:24:18;40.92;;;25.92;;
10705;SDS011;5404;42.656;23.336;2023-07-31T04:26:49;41.33;;;28.35;;
10705;SDS011;5404;42.656;23.336;2023-07-31T04:29:18;39.17;;;27.13;;
10705;SDS011;5404;42.656;23.336;2023-07-31T04:31:43;38.42;;;26.45;;
10705;SDS011;5404;42.656;23.336;2023-07-31T04:34:10;40.38;;;27.52;;
10705;SDS011;5404;42.656;23.336;2023-07-31T04:36:39;39.53;;;28.48;;
10705;SDS011;5404;42.656;23.336;2023-07-31T04:39:04;42.67;;;28.58;;
10705;SDS011;5404;42.656;23.336;2023-07-31T04:41:30;34.60;;;24.23;;
10705;SDS011;5404;42.656;23.336;2023-07-31T04:43:56;40.55;;;26.88;;
10705;SDS011;5404;42.656;23.336;2023-07-31T04:46:21;47.33;;;27.58;;
10705;SDS011;5404;42.656;23.336;2023-07-31T04:48:47;36.50;;;25.67;;
10705;SDS011;5404;42.656;23.336;2023-07-31T04:51:12;40.17;;;26.83;;
10705;SDS011;5404;42.656;23.336;2023-07-31T04:53:37;38.05;;;26.20;;
10705;SDS011;5404;42.656;23.336;2023-07-31T04:56:03;36.88;;;25.77;;
10705;SDS011;5404;42.656;23.336;2023-07-31T04:58:28;34.13;;;23.58;;
10705;SDS011;5404;42.656;23.336;2023-07-31T05:00:54;33.38;;;25.15;;
10705;SDS011;5404;42.656;23.336;2023-07-31T05:03:19;35.53;;;23.83;;
10705;SDS011;5404;42.656;23.336;2023-07-31T05:05:45;35.83;;;22.73;;
10705;SDS011;5404;42.656;23.336;2023-07-31T05:08:10;36.22;;;23.10;;
10705;SDS011;5404;42.656;23.336;2023-07-31T05:10:36;31.63;;;23.67;;
10705;SDS011;5404;42.656;23.336;2023-07-31T05:13:01;36.13;;;22.20;;
10705;SDS011;5404;42.656;23.336;2023-07-31T05:15:27;32.42;;;21.27;;
10705;SDS011;5404;42.656;23.336;2023-07-31T05:17:53;31.30;;;22.00;;
10705;SDS011;5404;42.656;23.336;2023-07-31T05:20:18;28.38;;;17.45;;
10705;SDS011;5404;42.656;23.336;2023-07-31T05:22:44;29.55;;;19.95;;
10705;SDS011;5404;42.656;23.336;2023-07-31T05:25:09;25.83;;;20.45;;
10705;SDS011;5404;42.656;23.336;2023-07-31T05:27:35;29.58;;;19.73;;
10705;SDS011;5404;42.656;23.336;2023-07-31T05:30:00;27.30;;;17.77;;
10705;SDS011;5404;42.656;23.336;2023-07-31T05:32:25;28.42;;;18.67;;
10705;SDS011;5404;42.656;23.336;2023-07-31T05:34:51;24.85;;;16.55;;
10705;SDS011;5404;42.656;23.336;2023-07-31T05:37:17;25.55;;;18.05;;
10705;SDS011;5404;42.656;23.336;2023-07-31T05:39:43;24.83;;;15.90;;
10705;SDS011;5404;42.656;23.336;2023-07-31T05:42:08;20.58;;;16.17;;
10705;SDS011;5404;42.656;23.336;2023-07-31T05:44:34;22.27;;;15.85;;
10705;SDS011;5404;42.656;23.336;2023-07-31T05:46:59;21.85;;;14.95;;
10705;SDS011;5404;42.656;23.336;2023-07-31T05:49:25;25.15;;;13.88;;
10705;SDS011;5404;42.656;23.336;2023-07-31T05:51:50;16.67;;;12.57;;
10705;SDS011;5404;42.656;23.336;2023-07-31T05:54:16;13.50;;;10.63;;
10705;SDS011;5404;42.656;23.336;2023-07-31T05:56:41;20.10;;;11.02;;
10705;SDS011;5404;42.656;23.336;2023-07-31T05:59:08;13.90;;;10.05;;
10705;SDS011;5404;42.656;23.336;2023-07-31T06:01:34;14.52;;;10.68;;
10705;SDS011;5404;42.656;23.336;2023-07-31T06:04:00;12.15;;;9.45;;
10705;SDS011;5404;42.656;23.336;2023-07-31T06:06:26;15.10;;;8.88;;
10705;SDS011;5404;42.656;23.336;2023-07-31T06:08:52;14.07;;;7.72;;
10705;SDS011;5404;42.656;23.336;2023-07-31T06:11:18;11.52;;;8.23;;
10705;SDS011;5404;42.656;23.336;2023-07-31T06:13:45;11.10;;;8.23;;
10705;SDS011;5404;42.656;23.336;2023-07-31T06:16:11;10.52;;;7.65;;
10705;SDS011;5404;42.656;23.336;2023-07-31T06:18:37;9.25;;;7.13;;
10705;SDS011;5404;42.656;23.336;2023-07-31T06:21:02;11.82;;;6.60;;
10705;SDS011;5404;42.656;23.336;2023-07-31T06:23:28;11.65;;;5.80;;
10705;SDS011;5404;42.656;23.336;2023-07-31T06:25:53;7.63;;;5.00;;
10705;SDS011;5404;42.656;23.336;2023-07-31T06:28:18;12.93;;;5.88;;
10705;SDS011;5404;42.656;23.336;2023-07-31T06:30:44;8.60;;;4.80;;
10705;SDS011;5404;42.656;23.336;2023-07-31T06:33:09;13.02;;;5.20;;
10705;SDS011;5404;42.656;23.336;2023-07-31T06:35:35;13.63;;;6.20;;
10705;SDS011;5404;42.656;23.336;2023-07-31T06:38:00;9.68;;;5.35;;
10705;SDS011;5404;42.656;23.336;2023-07-31T06:40:27;7.38;;;5.30;;
10705;SDS011;5404;42.656;23.336;2023-07-31T06:42:52;8.82;;;5.70;;
10705;SDS011;5404;42.656;23.336;2023-07-31T06:45:18;8.10;;;5.18;;
10705;SDS011;5404;42.656;23.336;2023-07-31T06:47:43;7.65;;;5.68;;
10705;SDS011;5404;42.656;23.336;2023-07-31T06:50:09;7.65;;;5.88;;
10705;SDS011;5404;42.656;23.336;2023-07-31T06:52:34;16.33;;;6.28;;
10705;SDS011;5404;42.656;23.336;2023-07-31T06:55:03;6.88;;;5.22;;
10705;SDS011;5404;42.656;23.336;2023-07-31T06:57:42;7.85;;;4.40;;
10705;SDS011;5404;42.656;23.336;2023-07-31T07:00:08;6.30;;;4.97;;
10705;SDS011;5404;42.656;23.336;2023-07-31T07:02:33;8.48;;;5.45;;
10705;SDS011;5404;42.656;23.336;2023-07-31T07:04:59;10.85;;;5.15;;
10705;SDS011;5404;42.656;23.336;2023-07-31T07:07:24;8.30;;;4.32;;
10705;SDS011;5404;42.656;23.336;2023-07-31T07:09:50;10.27;;;5.57;;
10705;SDS011;5404;42.656;23.336;2023-07-31T07:12:15;8.50;;;4.45;;
10705;SDS011;5404;42.656;23.336;2023-07-31T07:14:41;10.68;;;4.72;;
10705;SDS011;5404;42.656;23.336;2023-07-31T07:17:06;13.98;;;5.32;;
10705;SDS011;5404;42.656;23.336;2023-07-31T07:19:32;6.35;;;4.32;;
10705;SDS011;5404;42.656;23.336;2023-07-31T07:21:57;6.60;;;3.95;;
10705;SDS011;5404;42.656;23.336;2023-07-31T07:24:24;6.50;;;3.65;;
10705;SDS011;5404;42.656;23.336;2023-07-31T07:26:50;7.65;;;4.20;;
10705;SDS011;5404;42.656;23.336;2023-07-31T07:29:16;6.32;;;4.05;;
10705;SDS011;5404;42.656;23.336;2023-07-31T07:31:41;14.98;;;4.00;;
10705;SDS011;5404;42.656;23.336;2023-07-31T07:34:06;4.60;;;3.72;;
10705;SDS011;5404;42.656;23.336;2023-07-31T07:36:32;5.32;;;3.58;;
10705;SDS011;5404;42.656;23.336;2023-07-31T07:38:58;6.25;;;3.47;;
10705;SDS011;5404;42.656;23.336;2023-07-31T07:41:23;13.05;;;3.97;;
10705;SDS011;5404;42.656;23.336;2023-07-31T07:43:49;9.18;;;4.03;;
10705;SDS011;5404;42.656;23.336;2023-07-31T07:46:14;11.25;;;4.55;;
10705;SDS011;5404;42.656;23.336;2023-07-31T07:48:39;4.47;;;3.55;;
10705;SDS011;5404;42.656;23.336;2023-07-31T07:51:05;7.35;;;4.20;;
10705;SDS011;5404;42.656;23.336;2023-07-31T07:53:30;5.75;;;3.58;;
10705;SDS011;5404;42.656;23.336;2023-07-31T07:55:56;7.75;;;4.10;;
10705;SDS011;5404;42.656;23.336;2023-07-31T07:58:21;7.95;;;3.95;;
10705;SDS011;5404;42.656;23.336;2023-07-31T08:00:55;3.50;;;2.83;;
10705;SDS011;5404;42.656;23.336;2023-07-31T08:03:21;3.70;;;3.10;;
10705;SDS011;5404;42.656;23.336;2023-07-31T08:05:46;5.75;;;3.17;;
10705;SDS011;5404;42.656;23.336;2023-07-31T08:08:15;8.07;;;3.58;;
10705;SDS011;5404;42.656;23.336;2023-07-31T08:10:46;10.10;;;4.15;;
10705;SDS011;5404;42.656;23.336;2023-07-31T08:13:11;17.70;;;3.67;;
10705;SDS011;5404;42.656;23.336;2023-07-31T08:15:37;10.85;;;3.13;;
10705;SDS011;5404;42.656;23.336;2023-07-31T08:18:02;11.45;;;3.55;;
10705;SDS011;5404;42.656;23.336;2023-07-31T08:20:28;5.57;;;3.25;;
10705;SDS011;5404;42.656;23.336;2023-07-31T08:22:53;20.23;;;3.92;;
10705;SDS011;5404;42.656;23.336;2023-07-31T08:25:19;3.78;;;2.92;;
10705;SDS011;5404;42.656;23.336;2023-07-31T08:27:44;5.05;;;3.15;;
10705;SDS011;5404;42.656;23.336;2023-07-31T08:30:11;4.82;;;3.25;;
10705;SDS011;5404;42.656;23.336;2023-07-31T08:32:37;5.80;;;2.95;;
10705;SDS011;5404;42.656;23.336;2023-07-31T08:35:02;8.85;;;3.50;;
10705;SDS011;5404;42.656;23.336;2023-07-31T08:37:28;5.30;;;3.40;;
10705;SDS011;5404;42.656;23.336;2023-07-31T08:39:53;16.40;;;4.47;;
10705;SDS011;5404;42.656;23.336;2023-07-31T08:42:19;3.78;;;3.00;;
10705;SDS011;5404;42.656;23.336;2023-07-31T08:44:45;4.90;;;3.60;;
10705;SDS011;5404;42.656;23.336;2023-07-31T08:47:12;5.82;;;3.75;;
10705;SDS011;5404;42.656;23.336;2023-07-31T08:49:37;6.35;;;3.30;;
10705;SDS011;5404;42.656;23.336;2023-07-31T08:52:03;5.20;;;3.33;;
10705;SDS011;5404;42.656;23.336;2023-07-31T08:54:29;7.43;;;3.30;;
10705;SDS011;5404;42.656;23.336;2023-07-31T08:56:56;14.88;;;3.50;;
10705;SDS011;5404;42.656;23.336;2023-07-31T08:59:22;5.22;;;2.92;;
10705;SDS011;5404;42.656;23.336;2023-07-31T09:01:49;9.32;;;3.15;;
10705;SDS011;5404;42.656;23.336;2023-07-31T09:04:18;5.63;;;3.35;;
10705;SDS011;5404;42.656;23.336;2023-07-31T09:06:46;3.00;;;2.60;;
10705;SDS011;5404;42.656;23.336;2023-07-31T09:09:13;4.45;;;2.80;;
10705;SDS011;5404;42.656;23.336;2023-07-31T09:11:39;6.50;;;2.90;;
10705;SDS011;5404;42.656;23.336;2023-07-31T09:14:05;4.13;;;3.10;;
10705;SDS011;5404;42.656;23.336;2023-07-31T09:18:59;4.00;;;2.92;;
10705;SDS011;5404;42.656;23.336;2023-07-31T09:21:27;6.72;;;3.03;;
10705;SDS011;5404;42.656;23.336;2023-07-31T09:23:53;8.02;;;3.10;;
10705;SDS011;5404;42.656;23.336;2023-07-31T09:28:57;5.07;;;2.90;;
10705;SDS011;5404;42.656;23.336;2023-07-31T09:31:41;4.53;;;2.83;;
10705;SDS011;5404;42.656;23.336;2023-07-31T09:34:07;6.47;;;3.20;;
10705;SDS011;5404;42.656;23.336;2023-07-31T09:36:39;4.88;;;3.30;;
10705;SDS011;5404;42.656;23.336;2023-07-31T09:39:05;10.27;;;3.25;;
10705;SDS011;5404;42.656;23.336;2023-07-31T09:41:41;5.15;;;3.10;;
10705;SDS011;5404;42.656;23.336;2023-07-31T09:44:10;9.88;;;3.05;;
10705;SDS011;5404;42.656;23.336;2023-07-31T09:46:36;9.27;;;3.22;;
10705;SDS011;5404;42.656;23.336;2023-07-31T09:51:37;5.30;;;3.60;;
10705;SDS011;5404;42.656;23.336;2023-07-31T09:56:42;6.35;;;2.38;;
10705;SDS011;5404;42.656;23.336;2023-07-31T09:59:13;9.02;;;3.30;;
10705;SDS011;5404;42.656;23.336;2023-07-31T10:01:41;8.68;;;3.20;;
10705;SDS011;5404;42.656;23.336;2023-07-31T10:04:08;3.85;;;2.95;;
10705;SDS011;5404;42.656;23.336;2023-07-31T10:06:35;8.35;;;3.35;;
10705;SDS011;5404;42.656;23.336;2023-07-31T10:09:01;3.25;;;2.13;;
10705;SDS011;5404;42.656;23.336;2023-07-31T10:11:28;17.15;;;3.53;;
10705;SDS011;5404;42.656;23.336;2023-07-31T10:13:55;12.10;;;2.70;;
10705;SDS011;5404;42.656;23.336;2023-07-31T10:16:22;10.32;;;2.35;;
10705;SDS011;5404;42.656;23.336;2023-07-31T10:18:48;5.97;;;2.30;;
10705;SDS011;5404;42.656;23.336;2023-07-31T10:21:15;6.55;;;2.50;;
10705;SDS011;5404;42.656;23.336;2023-07-31T10:23:40;4.50;;;3.03;;
10705;SDS011;5404;42.656;23.336;2023-07-31T10:26:08;3.65;;;2.50;;
10705;SDS011;5404;42.656;23.336;2023-07-31T10:28:34;4.88;;;2.72;;
10705;SDS011;5404;42.656;23.336;2023-07-31T10:31:02;11.00;;;2.60;;
10705;SDS011;5404;42.656;23.336;2023-07-31T10:33:29;17.88;;;2.70;;
10705;SDS011;5404;42.656;23.336;2023-07-31T10:38:59;12.27;;;2.17;;
10705;SDS011;5404;42.656;23.336;2023-07-31T10:41:30;4.13;;;2.38;;
10705;SDS011;5404;42.656;23.336;2023-07-31T10:44:02;18.70;;;2.78;;
10705;SDS011;5404;42.656;23.336;2023-07-31T10:46:27;3.03;;;2.28;;
10705;SDS011;5404;42.656;23.336;2023-07-31T10:48:58;3.17;;;2.28;;
10705;SDS011;5404;42.656;23.336;2023-07-31T10:51:26;8.70;;;2.80;;
10705;SDS011;5404;42.656;23.336;2023-07-31T10:54:11;3.40;;;2.17;;
10705;SDS011;5404;42.656;23.336;2023-07-31T10:56:40;5.85;;;2.22;;
10705;SDS011;5404;42.656;23.336;2023-07-31T10:59:09;2.58;;;2.00;;
10705;SDS011;5404;42.656;23.336;2023-07-31T11:01:53;5.60;;;2.47;;
10705;SDS011;5404;42.656;23.336;2023-07-31T11:04:23;11.27;;;2.40;;
10705;SDS011;5404;42.656;23.336;2023-07-31T11:06:59;5.13;;;2.55;;
10705;SDS011;5404;42.656;23.336;2023-07-31T11:09:29;5.35;;;2.35;;
10705;SDS011;5404;42.656;23.336;2023-07-31T11:11:56;3.40;;;2.10;;
10705;SDS011;5404;42.656;23.336;2023-07-31T11:14:22;4.90;;;2.10;;
10705;SDS011;5404;42.656;23.336;2023-07-31T11:16:51;2.55;;;2.05;;
10705;SDS011;5404;42.656;23.336;2023-07-31T11:19:22;4.90;;;1.98;;
10705;SDS011;5404;42.656;23.336;2023-07-31T11:21:49;2.72;;;2.20;;
10705;SDS011;5404;42.656;23.336;2023-07-31T11:24:14;6.28;;;1.98;;
10705;SDS011;5404;42.656;23.336;2023-07-31T11:26:47;5.57;;;2.40;;
10705;SDS011;5404;42.656;23.336;2023-07-31T11:29:17;4.28;;;2.10;;
10705;SDS011;5404;42.656;23.336;2023-07-31T11:31:44;4.53;;;1.55;;
10705;SDS011;5404;42.656;23.336;2023-07-31T11:34:11;2.65;;;1.90;;
10705;SDS011;5404;42.656;23.336;2023-07-31T11:36:37;2.67;;;2.15;;
10705;SDS011;5404;42.656;23.336;2023-07-31T11:39:06;2.63;;;2.38;;
10705;SDS011;5404;42.656;23.336;2023-07-31T11:41:35;3.05;;;2.10;;
10705;SDS011;5404;42.656;23.336;2023-07-31T11:44:00;4.35;;;2.15;;
10705;SDS011;5404;42.656;23.336;2023-07-31T11:46:26;14.13;;;2.78;;
10705;SDS011;5404;42.656;23.336;2023-07-31T11:48:52;8.23;;;2.53;;
10705;SDS011;5404;42.656;23.336;2023-07-31T11:51:17;8.50;;;2.75;;
10705;SDS011;5404;42.656;23.336;2023-07-31T11:53:53;12.85;;;2.97;;
10705;SDS011;5404;42.656;23.336;2023-07-31T11:56:22;10.57;;;3.05;;
10705;SDS011;5404;42.656;23.336;2023-07-31T11:58:52;3.42;;;2.67;;
10705;SDS011;5404;42.656;23.336;2023-07-31T12:01:23;4.45;;;2.67;;
10705;SDS011;5404;42.656;23.336;2023-07-31T12:03:49;4.95;;;2.83;;
10705;SDS011;5404;42.656;23.336;2023-07-31T12:06:15;5.95;;;3.03;;
10705;SDS011;5404;42.656;23.336;2023-07-31T12:08:41;3.55;;;2.80;;
10705;SDS011;5404;42.656;23.336;2023-07-31T12:11:07;4.47;;;3.17;;
10705;SDS011;5404;42.656;23.336;2023-07-31T12:13:40;6.30;;;3.08;;
10705;SDS011;5404;42.656;23.336;2023-07-31T12:16:05;5.80;;;3.55;;
10705;SDS011;5404;42.656;23.336;2023-07-31T12:18:37;9.30;;;4.05;;
10705;SDS011;5404;42.656;23.336;2023-07-31T12:21:07;4.03;;;3.53;;
10705;SDS011;5404;42.656;23.336;2023-07-31T12:23:33;3.88;;;3.20;;
10705;SDS011;5404;42.656;23.336;2023-07-31T12:26:01;7.22;;;3.55;;
10705;SDS011;5404;42.656;23.336;2023-07-31T12:28:29;10.00;;;4.63;;
10705;SDS011;5404;42.656;23.336;2023-07-31T12:30:59;15.55;;;5.95;;
10705;SDS011;5404;42.656;23.336;2023-07-31T12:33:30;7.90;;;5.43;;
10705;SDS011;5404;42.656;23.336;2023-07-31T12:36:01;9.25;;;5.25;;
10705;SDS011;5404;42.656;23.336;2023-07-31T12:38:28;16.08;;;5.65;;
10705;SDS011;5404;42.656;23.336;2023-07-31T12:40:53;9.98;;;5.65;;
10705;SDS011;5404;42.656;23.336;2023-07-31T12:43:19;8.00;;;4.65;;
10705;SDS011;5404;42.656;23.336;2023-07-31T12:45:44;16.50;;;5.03;;
10705;SDS011;5404;42.656;23.336;2023-07-31T12:48:10;5.63;;;4.95;;
10705;SDS011;5404;42.656;23.336;2023-07-31T12:50:35;9.60;;;4.88;;
10705;SDS011;5404;42.656;23.336;2023-07-31T12:53:02;22.50;;;5.22;;
10705;SDS011;5404;42.656;23.336;2023-07-31T12:55:28;27.63;;;5.18;;
10705;SDS011;5404;42.656;23.336;2023-07-31T12:57:55;8.75;;;4.90;;
10705;SDS011;5404;42.656;23.336;2023-07-31T13:00:21;5.32;;;4.43;;
10705;SDS011;5404;42.656;23.336;2023-07-31T13:02:47;10.10;;;5.57;;
10705;SDS011;5404;42.656;23.336;2023-07-31T13:05:12;8.88;;;5.30;;
10705;SDS011;5404;42.656;23.336;2023-07-31T13:07:38;9.77;;;5.70;;
10705;SDS011;5404;42.656;23.336;2023-07-31T13:10:04;39.00;;;7.57;;
10705;SDS011;5404;42.656;23.336;2023-07-31T13:12:30;13.98;;;5.93;;
10705;SDS011;5404;42.656;23.336;2023-07-31T13:14:56;8.80;;;6.38;;
10705;SDS011;5404;42.656;23.336;2023-07-31T13:17:21;14.77;;;6.60;;
10705;SDS011;5404;42.656;23.336;2023-07-31T13:19:47;10.57;;;5.97;;
10705;SDS011;5404;42.656;23.336;2023-07-31T13:22:12;8.05;;;5.90;;
10705;SDS011;5404;42.656;23.336;2023-07-31T13:24:37;6.18;;;5.55;;
10705;SDS011;5404;42.656;23.336;2023-07-31T13:27:03;10.82;;;5.53;;
10705;SDS011;5404;42.656;23.336;2023-07-31T13:29:29;13.68;;;5.35;;
10705;SDS011;5404;42.656;23.336;2023-07-31T13:31:55;7.75;;;4.90;;
10705;SDS011;5404;42.656;23.336;2023-07-31T13:34:20;7.97;;;4.18;;
10705;SDS011;5404;42.656;23.336;2023-07-31T13:36:46;9.68;;;4.15;;
10705;SDS011;5404;42.656;23.336;2023-07-31T13:39:11;6.72;;;4.18;;
10705;SDS011;5404;42.656;23.336;2023-07-31T13:41:37;4.40;;;3.78;;
10705;SDS011;5404;42.656;23.336;2023-07-31T13:44:02;6.38;;;4.60;;
10705;SDS011;5404;42.656;23.336;2023-07-31T13:46:28;4.47;;;3.80;;
10705;SDS011;5404;42.656;23.336;2023-07-31T13:48:53;5.53;;;4.38;;
10705;SDS011;5404;42.656;23.336;2023-07-31T13:51:21;9.05;;;4.55;;
10705;SDS011;5404;42.656;23.336;2023-07-31T13:53:47;10.13;;;4.15;;
10705;SDS011;5404;42.656;23.336;2023-07-31T13:56:13;7.28;;;4.47;;
10705;SDS011;5404;42.656;23.336;2023-07-31T13:58:38;8.48;;;4.57;;
10705;SDS011;5404;42.656;23.336;2023-07-31T14:01:04;7.88;;;4.65;;
10705;SDS011;5404;42.656;23.336;2023-07-31T14:03:30;6.65;;;3.78;;
10705;SDS011;5404;42.656;23.336;2023-07-31T14:05:56;4.65;;;3.67;;
10705;SDS011;5404;42.656;23.336;2023-07-31T14:08:21;6.28;;;4.32;;
10705;SDS011;5404;42.656;23.336;2023-07-31T14:10:47;4.43;;;3.80;;
10705;SDS011;5404;42.656;23.336;2023-07-31T14:13:14;7.70;;;4.00;;
10705;SDS011;5404;42.656;23.336;2023-07-31T14:15:41;14.18;;;4.07;;
10705;SDS011;5404;42.656;23.336;2023-07-31T14:18:07;6.03;;;4.10;;
10705;SDS011;5404;42.656;23.336;2023-07-31T14:20:32;4.95;;;3.92;;
10705;SDS011;5404;42.656;23.336;2023-07-31T14:22:58;9.00;;;4.20;;
10705;SDS011;5404;42.656;23.336;2023-07-31T14:25:24;12.25;;;4.47;;
10705;SDS011;5404;42.656;23.336;2023-07-31T14:27:50;11.70;;;4.40;;
10705;SDS011;5404;42.656;23.336;2023-07-31T14:30:15;5.93;;;3.95;;
10705;SDS011;5404;42.656;23.336;2023-07-31T14:32:42;6.00;;;4.40;;
10705;SDS011;5404;42.656;23.336;2023-07-31T14:35:07;4.43;;;3.72;;
10705;SDS011;5404;42.656;23.336;2023-07-31T14:37:36;5.45;;;4.25;;
10705;SDS011;5404;42.656;23.336;2023-07-31T14:40:07;9.32;;;4.15;;
10705;SDS011;5404;42.656;23.336;2023-07-31T14:42:34;7.10;;;3.70;;
10705;SDS011;5404;42.656;23.336;2023-07-31T14:44:59;10.10;;;4.32;;
10705;SDS011;5404;42.656;23.336;2023-07-31T14:47:25;5.22;;;4.10;;
10705;SDS011;5404;42.656;23.336;2023-07-31T14:49:50;13.35;;;4.05;;